Time;durP1;ratioP1;P1;durP2;ratioP2;P2;SDS_P1;SDS_P2;PMS_P1;PMS_P2;Temp;Humidity;BMP_temperature;BMP_pressure;BME280_temperature;BME280_humidity;BME280_pressure;Samples;Min_cycle;Max_cycle;Signal;HPM_P1;HPM_P2
2022/09/04 00:02:20;;;;;;;8.10;4.32;;;;;;;11.79;62.23;100211.19;4878594;29;20454;-90
2022/09/04 00:05:07;;;;;;;7.88;4.47;;;;;;;11.76;62.63;100229.06;4859928;29;20060;-87
2022/09/04 00:08:10;;;;;;;8.88;4.55;;;;;;;11.30;62.82;100158.56;4861042;29;20096;-88
2022/09/04 00:11:02;;;;;;;8.65;4.78;;;;;;;11.70;62.58;100222.03;4876028;29;20070;-89
2022/09/04 00:13:35;;;;;;;8.00;4.65;;;;;;;11.37;62.81;100177.34;4869787;29;20531;-89
2022/09/04 00:16:05;;;;;;;8.15;4.20;;;;;;;11.37;62.79;100182.84;4881863;29;20041;-89
2022/09/04 00:18:38;;;;;;;11.15;4.70;;;;;;;11.44;63.41;100203.25;4877111;29;20041;-89
2022/09/04 00:21:16;;;;;;;11.68;5.05;;;;;;;11.37;63.49;100197.34;4861564;29;20033;-89
2022/09/04 00:23:54;;;;;;;7.97;4.25;;;;;;;11.19;63.48;100176.25;4877447;29;20049;-89
2022/09/04 00:26:39;;;;;;;8.10;4.78;;;;;;;11.30;63.63;100213.31;4861052;29;20037;-87
2022/09/04 00:29:15;;;;;;;9.50;4.55;;;;;;;11.14;63.76;100187.28;4876700;29;20048;-88
2022/09/04 00:31:48;;;;;;;11.38;4.70;;;;;;;10.90;64.06;100129.88;4862003;29;20128;-87
2022/09/04 00:34:35;;;;;;;11.30;5.10;;;;;;;11.22;64.15;100200.28;4856315;29;20037;-86
2022/09/04 00:37:05;;;;;;;13.38;4.97;;;;;;;11.17;64.82;100197.63;4879269;29;20124;-86
2022/09/04 00:39:43;;;;;;;10.27;4.30;;;;;;;11.20;64.63;100199.78;4849163;29;20053;-86
2022/09/04 00:42:47;;;;;;;10.25;4.90;;;;;;;10.97;64.65;100158.50;4880260;29;20052;-85
2022/09/04 00:45:22;;;;;;;12.88;4.93;;;;;;;11.38;64.68;100222.78;4872820;29;20518;-87
2022/09/04 00:48:04;;;;;;;7.43;4.68;;;;;;;11.34;65.11;100216.28;4879756;29;20056;-92
2022/09/04 00:50:36;;;;;;;12.68;4.82;;;;;;;11.37;64.65;100215.69;4845751;29;20073;-88
2022/09/04 00:53:57;;;;;;;9.75;5.30;;;;;;;11.40;64.89;100213.16;4838852;29;20054;-90
2022/09/04 00:56:57;;;;;;;8.45;4.55;;;;;;;10.95;64.99;100154.41;4841493;29;20057;-89
2022/09/04 00:59:57;;;;;;;8.23;4.40;;;;;;;11.37;64.97;100216.50;4833687;29;20093;-90
2022/09/04 01:02:34;;;;;;;7.07;4.32;;;;;;;11.38;64.79;100220.03;4847307;29;20049;-88
2022/09/04 01:05:12;;;;;;;12.27;4.43;;;;;;;11.41;64.56;100214.78;4847428;29;20072;-88
2022/09/04 01:08:00;;;;;;;11.20;4.70;;;;;;;11.35;64.96;100228.84;4863100;29;20458;-88
2022/09/04 01:10:44;;;;;;;7.07;4.10;;;;;;;11.31;64.90;100220.41;4878038;29;20060;-88
2022/09/04 01:13:19;;;;;;;7.00;4.55;;;;;;;10.92;64.84;100163.22;4848562;29;20439;-88
2022/09/04 01:15:51;;;;;;;10.32;4.53;;;;;;;11.23;65.31;100230.09;4848492;29;20056;-88
2022/09/04 01:18:29;;;;;;;9.10;4.47;;;;;;;11.27;65.26;100227.59;4847484;29;20594;-89
2022/09/04 01:21:18;;;;;;;11.43;4.63;;;;;;;11.13;65.25;100213.81;4846888;29;20591;-89
2022/09/04 01:24:05;;;;;;;8.15;4.50;;;;;;;10.89;65.17;100180.22;4847928;29;20540;-92
2022/09/04 01:26:54;;;;;;;7.03;4.38;;;;;;;10.93;64.77;100175.81;4862832;29;20048;-89
2022/09/04 01:29:55;;;;;;;10.60;4.70;;;;;;;11.23;65.15;100229.28;4864970;29;20426;-88
2022/09/04 01:32:28;;;;;;;10.27;4.78;;;;;;;11.10;64.95;100233.56;4861210;29;20052;-89
2022/09/04 01:35:13;;;;;;;10.65;4.60;;;;;;;10.70;65.58;100169.25;4871476;29;20045;-89
2022/09/04 01:38:19;;;;;;;9.07;4.40;;;;;;;10.79;65.52;100200.31;4862445;29;20047;-89
2022/09/04 01:41:06;;;;;;;11.15;5.18;;;;;;;11.11;65.71;100228.91;4851324;29;20586;-89
2022/09/04 01:46:20;;;;;;;10.52;4.68;;;;;;;11.05;65.94;100228.97;4862488;29;20507;-89
2022/09/04 01:48:58;;;;;;;8.07;4.85;;;;;;;10.98;66.12;100224.97;4861324;29;20065;-89
2022/09/04 01:51:39;;;;;;;8.70;4.85;;;;;;;10.86;66.54;100228.13;4878897;29;20049;-93
2022/09/04 01:54:17;;;;;;;12.70;4.60;;;;;;;10.26;66.83;100151.16;4863961;29;20041;-89
2022/09/04 01:57:01;;;;;;;13.07;5.53;;;;;;;10.71;67.14;100222.84;4848743;29;20121;-90
2022/09/04 02:00:10;;;;;;;14.27;5.50;;;;;;;10.68;66.77;100223.41;4848134;29;20049;-88
2022/09/04 02:02:54;;;;;;;10.02;5.47;;;;;;;10.57;67.62;100218.06;4861517;29;21832;-87
2022/09/04 02:05:29;;;;;;;12.38;5.05;;;;;;;10.35;67.66;100171.28;4861886;29;20097;-88
2022/09/04 02:10:43;;;;;;;10.40;5.05;;;;;;;10.65;67.31;100208.41;4877396;29;20068;-88
2022/09/04 02:13:30;;;;;;;8.73;5.13;;;;;;;10.41;67.70;100183.00;4855551;29;20144;-87
2022/09/04 02:16:18;;;;;;;11.10;4.93;;;;;;;10.56;67.90;100202.78;4871683;29;20345;-87
2022/09/04 02:18:56;;;;;;;11.82;5.00;;;;;;;10.47;68.23;100206.44;4877640;29;20078;-87
2022/09/04 02:21:54;;;;;;;8.63;5.22;;;;;;;10.49;68.59;100205.03;4847066;29;20538;-88
2022/09/04 02:24:24;;;;;;;11.90;4.80;;;;;;;10.45;68.36;100206.72;4873694;29;20164;-89
2022/09/04 02:27:09;;;;;;;10.63;4.70;;;;;;;9.95;68.38;100137.00;4877866;29;20048;-88
2022/09/04 02:29:55;;;;;;;9.18;5.20;;;;;;;10.19;68.70;100188.94;4860181;29;20102;-88
2022/09/04 02:32:38;;;;;;;10.65;5.20;;;;;;;9.86;68.94;100151.25;4874768;29;20071;-87
2022/09/04 02:35:58;;;;;;;9.82;5.10;;;;;;;10.00;69.37;100192.41;4874090;29;20037;-87
2022/09/04 02:38:48;;;;;;;9.80;5.43;;;;;;;9.98;69.57;100197.31;4822436;29;20045;-87
2022/09/04 02:41:49;;;;;;;12.63;5.28;;;;;;;9.68;69.28;100152.00;4855821;29;20056;-85
2022/09/04 02:44:36;;;;;;;9.68;4.95;;;;;;;9.87;69.23;100193.88;4772501;29;20078;-88
2022/09/04 02:47:17;;;;;;;;;;;;;;;10.11;69.62;100232.16;4812009;29;20047;-86
2022/09/04 02:50:20;;;;;;;12.77;5.70;;;;;;;10.12;69.76;100222.06;4776371;29;20395;-85
2022/09/04 02:53:07;;;;;;;9.32;4.75;;;;;;;10.17;69.82;100224.75;4769839;29;20050;-88
2022/09/04 02:55:51;;;;;;;17.58;5.93;;;;;;;10.03;69.42;100199.19;4761618;29;20051;-89
2022/09/04 02:58:56;;;;;;;11.43;5.05;;;;;;;9.86;69.26;100166.84;4773889;29;20196;-88
2022/09/04 03:01:32;;;;;;;10.93;5.18;;;;;;;10.24;69.21;100219.75;4790282;29;20200;-87
2022/09/04 03:04:12;;;;;;;14.15;6.20;;;;;;;10.12;69.33;100228.31;4760281;29;20110;-87
2022/09/04 03:06:57;;;;;;;12.50;5.80;;;;;;;9.88;69.86;100191.97;4786493;29;20089;-89
2022/09/04 03:09:30;;;;;;;9.65;5.68;;;;;;;10.07;69.56;100222.94;4780489;29;20046;-89
2022/09/04 03:12:05;;;;;;;13.55;5.28;;;;;;;10.06;70.03;100228.66;4766566;29;20145;-89
2022/09/04 03:14:37;;;;;;;14.05;5.13;;;;;;;10.05;70.41;100224.31;4773664;29;20058;-87
2022/09/04 03:17:37;;;;;;;11.50;5.55;;;;;;;10.07;70.76;100222.13;4757922;29;20047;-88
2022/09/04 03:20:25;;;;;;;9.95;5.15;;;;;;;10.13;70.06;100229.13;4785431;29;20041;-87
2022/09/04 03:23:18;;;;;;;10.65;4.97;;;;;;;10.24;69.96;100225.22;4862495;29;20515;-89
2022/09/04 03:25:56;;;;;;;11.82;5.65;;;;;;;9.99;69.39;100176.28;4878476;29;20507;-89
2022/09/04 03:28:54;;;;;;;9.75;5.20;;;;;;;10.08;68.78;100169.91;4869585;29;20120;-89
2022/09/04 03:31:26;;;;;;;9.30;4.70;;;;;;;10.53;68.61;100225.22;4847926;29;20059;-87
2022/09/04 03:34:19;;;;;;;10.50;6.60;;;;;;;10.60;68.47;100232.28;4847545;29;20192;-88
2022/09/04 03:37:06;;;;;;;12.63;6.03;;;;;;;10.54;68.43;100210.44;4843076;29;20056;-88
2022/09/04 03:39:56;;;;;;;15.98;5.63;;;;;;;10.69;68.40;100238.72;4848022;29;20037;-88
2022/09/04 03:42:40;;;;;;;15.02;5.68;;;;;;;10.49;68.32;100193.28;4847221;29;20041;-88
2022/09/04 03:45:10;;;;;;;9.30;5.45;;;;;;;10.77;67.94;100227.16;4862294;29;20415;-87
2022/09/04 03:48:00;;;;;;;14.57;5.07;;;;;;;10.86;67.45;100222.66;4853899;29;20396;-87
2022/09/04 03:50:46;;;;;;;12.27;5.72;;;;;;;10.94;67.87;100227.47;4861696;29;20045;-89
2022/09/04 03:53:38;;;;;;;11.98;5.35;;;;;;;10.72;67.08;100184.25;4859273;29;20049;-88
2022/09/04 03:56:49;;;;;;;16.17;5.43;;;;;;;10.90;67.12;100190.06;4877340;29;20045;-89
2022/09/04 03:59:32;;;;;;;13.00;5.22;;;;;;;10.81;66.92;100173.47;4871473;29;20132;-88
2022/09/04 04:02:30;;;;;;;22.25;5.47;;;;;;;10.97;66.42;100191.31;4881132;29;20049;-88
2022/09/04 04:05:18;;;;;;;14.77;5.82;;;;;;;10.94;67.08;100183.69;4856418;29;20526;-88
2022/09/04 04:08:03;;;;;;;9.90;5.80;;;;;;;11.26;66.77;100223.25;4871439;29;20517;-88
2022/09/04 04:10:38;;;;;;;11.10;6.07;;;;;;;11.15;66.83;100189.69;4865447;29;20056;-90
2022/09/04 04:13:38;;;;;;;11.20;5.10;;;;;;;11.37;66.78;100219.22;4895853;29;20041;-88
2022/09/04 04:16:39;;;;;;;13.48;5.25;;;;;;;11.37;66.25;100219.22;4845814;29;20526;-89
2022/09/04 04:19:32;;;;;;;12.77;5.18;;;;;;;11.45;66.16;100213.06;4875710;29;20068;-87
2022/09/04 04:22:33;;;;;;;13.30;5.18;;;;;;;11.56;65.94;100218.44;4864947;29;20064;-88
2022/09/04 04:25:02;;;;;;;10.05;4.97;;;;;;;11.69;65.67;100217.66;4864534;29;20047;-90
2022/09/04 04:28:00;;;;;;;9.57;4.40;;;;;;;11.35;64.48;100166.69;4860041;29;20102;-87
2022/09/04 04:30:43;;;;;;;7.85;4.53;;;;;;;11.54;63.82;100180.38;4840938;29;20064;-88
2022/09/04 04:33:21;;;;;;;7.03;4.57;;;;;;;11.86;64.57;100209.75;4864528;29;20047;-85
2022/09/04 04:36:08;;;;;;;10.23;4.88;;;;;;;12.04;63.74;100210.78;4880097;29;20036;-89
2022/09/04 04:39:00;;;;;;;11.38;4.53;;;;;;;12.14;63.37;100215.28;4850026;29;20144;-90
2022/09/04 04:42:03;;;;;;;8.35;4.25;;;;;;;12.03;62.66;100211.91;4865094;29;20072;-90
2022/09/04 04:47:43;;;;;;;;;;;;;;;12.10;61.36;100215.09;4862694;29;20049;-93
2022/09/04 04:50:32;;;;;;;7.60;4.05;;;;;;;12.00;62.00;100174.16;4856315;29;19924;-89
2022/09/04 04:53:32;;;;;;;9.25;3.90;;;;;;;12.37;60.77;100219.78;4878878;29;20136;-90
2022/09/04 04:56:33;;;;;;;12.20;3.90;;;;;;;11.95;59.02;100142.19;4863458;29;20052;-88
2022/09/04 04:59:02;;;;;;;7.38;4.00;;;;;;;12.49;58.99;100218.50;4836345;29;20063;-88
2022/09/04 05:01:43;;;;;;;5.53;3.58;;;;;;;12.50;58.27;100217.38;4848755;29;20056;-89
2022/09/04 05:04:40;;;;;;;14.75;3.70;;;;;;;12.18;59.63;100161.47;4834794;29;20045;-86
2022/09/04 05:07:45;;;;;;;6.15;3.42;;;;;;;12.08;58.93;100147.97;4868407;29;20037;-87
2022/09/04 05:10:23;;;;;;;10.55;3.47;;;;;;;12.37;58.17;100186.88;4844325;29;20403;-87
2022/09/04 05:13:21;;;;;;;6.03;3.53;;;;;;;12.02;58.29;100135.47;4851329;29;20072;-88
2022/09/04 05:16:00;;;;;;;9.13;3.67;;;;;;;12.58;58.60;100217.50;4853124;29;20041;-89
2022/09/04 05:19:01;;;;;;;5.30;3.65;;;;;;;12.16;58.48;100137.13;4895961;29;20226;-87
2022/09/04 05:21:33;;;;;;;6.78;3.70;;;;;;;12.81;58.35;100218.38;4825677;29;20045;-94
2022/09/04 05:24:15;;;;;;;13.43;3.58;;;;;;;12.46;57.77;100162.34;4846455;29;20687;-91
2022/09/04 05:26:56;;;;;;;12.40;3.80;;;;;;;12.26;55.95;100116.94;4838840;29;20545;-88
2022/09/04 05:29:40;;;;;;;8.85;3.30;;;;;;;12.41;55.25;100154.19;4815297;29;20058;-90
2022/09/04 05:32:20;;;;;;;5.65;2.33;;;;;;;12.46;54.66;100162.34;4861972;29;20385;-91
2022/09/04 05:34:56;;;;;;;10.68;2.80;;;;;;;12.85;54.55;100224.91;4835621;29;20046;-89
2022/09/04 05:37:45;;;;;;;8.43;3.00;;;;;;;12.63;55.00;100183.66;4825710;29;20535;-88
2022/09/04 05:40:51;;;;;;;19.42;3.00;;;;;;;12.92;53.33;100228.06;4833250;29;20515;-89
2022/09/04 05:43:23;;;;;;;9.52;2.78;;;;;;;12.93;53.44;100228.84;4846233;29;20049;-87
2022/09/04 05:46:04;;;;;;;19.88;4.15;;;;;;;12.87;53.23;100208.13;4861019;29;20037;-85
2022/09/04 05:48:44;;;;;;;21.45;3.45;;;;;;;13.02;52.17;100224.28;4836281;29;20055;-89
2022/09/04 05:51:29;;;;;;;21.48;4.20;;;;;;;13.10;50.43;100226.28;4829715;29;20060;-90
2022/09/04 05:54:20;;;;;;;44.88;5.18;;;;;;;12.97;50.68;100220.81;4856023;29;20061;-88
2022/09/04 05:56:46;;;;;;;27.60;3.75;;;;;;;12.96;50.40;100235.69;4829809;29;20045;-91
2022/09/04 05:59:54;;;;;;;74.25;7.25;;;;;;;12.92;50.51;100213.53;4845121;29;20084;-89
2022/09/04 06:02:29;;;;;;;26.40;4.07;;;;;;;13.16;50.88;100238.78;4852624;29;20044;-89
2022/09/04 06:05:13;;;;;;;19.73;3.13;;;;;;;12.85;50.41;100174.72;4843978;29;20103;-91
2022/09/04 06:08:11;;;;;;;4.72;2.10;;;;;;;12.67;49.83;100151.75;4840761;29;20053;-91
2022/09/04 06:10:58;;;;;;;6.60;2.10;;;;;;;13.28;50.11;100235.56;4858288;29;20041;-90
2022/09/04 06:13:52;;;;;;;10.45;2.47;;;;;;;13.31;48.57;100234.09;4863546;29;20068;-92
2022/09/04 06:16:24;;;;;;;57.05;6.88;;;;;;;13.34;48.38;100247.22;4881521;29;20048;-90
2022/09/04 06:19:14;;;;;;;53.53;4.22;;;;;;;13.37;48.07;100239.19;4852115;29;20073;-89
2022/09/04 06:22:07;;;;;;;8.10;2.17;;;;;;;12.94;46.88;100183.81;4878006;29;20033;-87
2022/09/04 06:25:08;;;;;;;10.98;1.60;;;;;;;13.44;46.18;100246.19;4877219;29;20033;-89
2022/09/04 06:28:19;;;;;;;2.72;1.60;;;;;;;13.12;46.42;100250.72;4879527;29;20522;-92
2022/09/04 06:31:26;;;;;;;16.20;2.05;;;;;;;12.93;47.73;100184.94;4864809;29;20073;-91
2022/09/04 06:34:14;;;;;;;12.98;1.92;;;;;;;13.35;47.06;100246.94;4868219;29;20244;-92
2022/09/04 06:37:10;;;;;;;1.83;1.40;;;;;;;12.96;47.18;100178.03;4847462;29;20076;-87
2022/09/04 06:40:03;;;;;;;25.67;2.25;;;;;;;13.39;46.11;100253.44;4844588;29;20057;-95
2022/09/04 06:43:05;;;;;;;16.83;2.72;;;;;;;12.91;47.50;100151.50;4868439;29;20773;-91
2022/09/04 06:45:46;;;;;;;11.63;3.10;;;;;;;13.37;45.77;100258.41;4832562;29;20514;-92
2022/09/04 06:48:40;;;;;;;4.88;1.60;;;;;;;12.78;46.08;100149.59;4858878;29;20061;-92
2022/09/04 06:51:31;;;;;;;17.55;2.50;;;;;;;12.75;45.97;100140.06;4844745;29;20547;-92
2022/09/04 06:54:29;;;;;;;17.20;2.00;;;;;;;13.48;45.50;100248.03;4838944;29;20040;-92
2022/09/04 06:57:23;;;;;;;14.40;2.15;;;;;;;13.59;46.44;100237.59;4839223;29;20097;-92
2022/09/04 07:00:03;;;;;;;3.10;1.33;;;;;;;13.44;44.39;100205.00;4864602;29;20048;-92
2022/09/04 07:02:45;;;;;;;8.85;2.00;;;;;;;13.63;44.69;100250.41;4849698;29;20048;-92
2022/09/04 07:05:48;;;;;;;8.68;1.70;;;;;;;13.40;44.64;100216.59;4834224;29;20053;-89
2022/09/04 07:08:41;;;;;;;12.77;2.20;;;;;;;13.59;45.16;100249.41;4843238;29;20044;-89
2022/09/04 07:11:16;;;;;;;12.40;2.47;;;;;;;13.63;45.70;100249.59;4872515;29;20736;-91
2022/09/04 07:14:18;;;;;;;10.50;1.60;;;;;;;13.79;44.75;100250.88;4839887;29;20052;-91
2022/09/04 07:17:09;;;;;;;7.38;1.58;;;;;;;13.89;44.81;100247.06;4839372;29;20037;-91
2022/09/04 07:20:11;;;;;;;4.20;1.13;;;;;;;13.92;43.99;100243.69;4863385;29;20189;-91
2022/09/04 07:23:01;;;;;;;1.85;1.33;;;;;;;13.95;44.30;100243.06;4855060;29;20061;-90
2022/09/04 07:25:45;;;;;;;2.58;1.75;;;;;;;13.75;43.58;100205.91;4869177;29;20064;-90
2022/09/04 07:28:59;;;;;;;6.38;1.90;;;;;;;14.09;43.22;100246.53;4866020;29;20047;-88
2022/09/04 07:31:35;;;;;;;8.93;1.40;;;;;;;13.58;42.19;100137.91;4846049;29;20124;-90
2022/09/04 07:34:04;;;;;;;29.88;2.72;;;;;;;14.17;41.46;100225.75;4853777;29;20045;-90
2022/09/04 07:36:37;;;;;;;32.00;3.40;;;;;;;13.80;42.83;100150.78;4840330;29;20073;-90
2022/09/04 07:39:37;;;;;;;19.90;2.50;;;;;;;13.68;42.46;100139.56;4832465;29;20112;-93
2022/09/04 07:42:12;;;;;;;7.85;1.92;;;;;;;13.49;42.35;100133.47;4868198;29;20069;-90
2022/09/04 07:44:49;;;;;;;20.92;2.47;;;;;;;13.80;42.76;100186.50;4854696;29;20037;-90
2022/09/04 07:47:48;;;;;;;20.13;2.60;;;;;;;14.15;43.14;100222.50;4873940;29;20037;-92
2022/09/04 07:50:20;;;;;;;20.80;2.53;;;;;;;13.97;43.04;100187.75;4843877;29;20049;-91
2022/09/04 07:53:21;;;;;;;22.23;8.10;;;;;;;14.26;43.28;100206.53;4871142;29;20044;-87
2022/09/04 07:55:52;;;;;;;23.98;5.25;;;;;;;13.99;42.61;100142.34;4863530;29;20133;-89
2022/09/04 07:58:39;;;;;;;21.65;4.65;;;;;;;14.67;43.92;100202.69;4854968;29;20052;-90
2022/09/04 08:01:44;;;;;;;22.15;3.45;;;;;;;14.36;41.55;100128.41;4873896;29;20037;-90
2022/09/04 08:04:43;;;;;;;3.08;1.88;;;;;;;14.34;40.83;100140.56;4883815;29;20052;-87
2022/09/04 08:07:22;;;;;;;8.27;2.05;;;;;;;14.50;40.58;100164.88;4856612;29;20049;-91
2022/09/04 08:09:48;;;;;;;13.88;2.33;;;;;;;14.86;41.14;100197.72;4836689;29;20508;-91
2022/09/04 08:12:28;;;;;;;34.40;3.22;;;;;;;14.30;42.02;100103.84;4848529;29;20181;-92
2022/09/04 08:15:03;;;;;;;7.93;3.20;;;;;;;14.72;41.01;100148.31;4836317;29;20511;-87
2022/09/04 08:18:00;;;;;;;2.33;1.63;;;;;;;14.89;39.76;100146.72;4864471;29;20041;-90
2022/09/04 08:20:54;;;;;;;12.18;3.00;;;;;;;15.25;40.52;100177.53;4871702;29;20463;-91
2022/09/04 08:23:29;;;;;;;30.10;3.85;;;;;;;15.47;40.40;100181.28;4851332;29;20102;-90
2022/09/04 08:26:13;;;;;;;9.77;1.50;;;;;;;15.40;38.79;100192.00;4852588;29;20094;-89
2022/09/04 08:28:58;;;;;;;12.32;4.30;;;;;;;15.23;39.00;100195.50;4832251;29;20431;-92
2022/09/04 08:31:41;;;;;;;18.50;6.68;;;;;;;14.84;39.58;100100.09;4836455;29;20077;-91
2022/09/04 08:34:16;;;;;;;33.00;3.08;;;;;;;15.18;39.29;100174.47;4868263;29;20038;-91
2022/09/04 08:36:50;;;;;;;13.40;2.45;;;;;;;15.45;38.18;100173.31;4848107;29;20046;-89
2022/09/04 08:39:46;;;;;;;4.70;2.20;;;;;;;15.14;37.85;100134.94;4868836;29;20068;-89
2022/09/04 08:42:26;;;;;;;10.80;1.70;;;;;;;15.28;37.83;100141.09;4864103;29;20057;-93
2022/09/04 08:45:27;;;;;;;5.60;2.55;;;;;;;15.49;37.51;100174.28;4853912;29;20048;-88
2022/09/04 08:48:02;;;;;;;9.93;1.80;;;;;;;15.14;37.21;100137.69;4849887;29;20045;-90
2022/09/04 08:50:37;;;;;;;4.10;1.55;;;;;;;14.73;38.05;100096.81;4871050;29;20079;-90
2022/09/04 08:53:24;;;;;;;4.75;2.20;;;;;;;15.19;39.14;100169.75;4845479;29;20510;-92
2022/09/04 08:56:09;;;;;;;5.82;2.42;;;;;;;15.25;38.08;100172.03;4848021;29;20057;-91
2022/09/04 08:58:44;;;;;;;10.73;2.40;;;;;;;15.25;38.03;100162.97;4857842;29;20049;-93
2022/09/04 09:01:26;;;;;;;6.95;2.55;;;;;;;14.96;39.30;100092.00;4851493;29;20101;-91
2022/09/04 09:04:24;;;;;;;9.27;2.20;;;;;;;15.53;37.93;100163.47;4860957;29;20073;-91
2022/09/04 09:07:12;;;;;;;10.35;3.22;;;;;;;15.46;38.48;100155.69;4877594;29;20094;-90
2022/09/04 09:09:58;;;;;;;6.82;1.70;;;;;;;15.34;37.74;100155.50;4859620;29;20045;-91
2022/09/04 09:12:54;;;;;;;15.15;5.47;;;;;;;15.31;38.40;100153.41;4849871;29;20047;-88
2022/09/04 09:15:48;;;;;;;4.80;2.55;;;;;;;15.48;37.52;100147.06;4849692;29;20041;-88
2022/09/04 09:18:40;;;;;;;7.50;1.85;;;;;;;15.69;37.17;100150.84;4896466;29;20049;-90
2022/09/04 09:21:39;;;;;;;16.33;2.97;;;;;;;15.65;35.99;100121.44;4864849;29;20533;-90
2022/09/04 09:24:20;;;;;;;27.80;2.75;;;;;;;15.78;36.45;100141.72;4850273;29;20037;-90
2022/09/04 09:27:06;;;;;;;14.70;3.10;;;;;;;15.67;37.65;100147.56;4846905;29;20053;-91
2022/09/04 09:29:57;;;;;;;13.48;2.55;;;;;;;15.47;37.21;100143.50;4880671;29;20606;-93
2022/09/04 09:33:32;;;;;;;3.85;1.42;;;;;;;15.34;37.01;100119.69;4872198;29;20060;-94
2022/09/04 09:36:11;;;;;;;14.10;2.10;;;;;;;15.01;36.80;100091.84;4791021;29;20149;-91
2022/09/04 09:39:01;;;;;;;5.10;1.60;;;;;;;15.24;37.34;100156.66;4849090;29;20607;-91
2022/09/04 09:41:50;;;;;;;3.58;1.65;;;;;;;14.93;37.78;100165.06;4856208;29;20045;-89
2022/09/04 09:44:47;;;;;;;3.20;1.70;;;;;;;14.41;38.60;100079.59;4850040;29;20080;-89
2022/09/04 09:47:41;;;;;;;6.20;2.22;;;;;;;15.13;38.33;100149.84;4861751;29;20200;-91
2022/09/04 09:50:20;;;;;;;8.32;2.00;;;;;;;15.24;37.62;100118.09;4848428;29;20136;-91
2022/09/04 09:53:17;;;;;;;1.80;1.45;;;;;;;15.70;36.25;100135.91;4863617;29;20037;-91
2022/09/04 09:56:12;;;;;;;7.22;2.10;;;;;;;16.16;36.04;100126.03;4864333;29;20041;-92
2022/09/04 09:59:03;;;;;;;4.43;1.63;;;;;;;16.35;33.86;100133.09;4868688;29;20041;-89
2022/09/04 10:01:38;;;;;;;1.95;1.38;;;;;;;16.43;33.72;100132.25;4853922;29;20060;-95
2022/09/04 10:04:42;;;;;;;1.65;1.20;;;;;;;16.23;32.77;100077.81;4849767;29;20055;-94
2022/09/04 10:07:18;;;;;;;5.95;3.05;;;;;;;16.87;33.80;100130.06;4865013;29;20048;-93
2022/09/04 10:23:19;;;;;;;17.90;1.95;;;;;;;16.75;36.45;100129.97;5949506;23;22161;31
2022/09/04 10:26:38;;;;;;;6.63;2.10;;;;;;;16.68;35.94;100130.47;4828955;29;20052;-91
2022/09/04 10:29:44;;;;;;;5.35;1.63;;;;;;;16.69;35.62;100129.34;4835908;29;20034;-90
2022/09/04 10:35:20;;;;;;;8.57;2.20;;;;;;;17.24;34.79;100128.31;5033463;23;20061;-94
2022/09/04 10:38:19;;;;;;;4.45;1.50;;;;;;;17.23;32.93;100123.97;4848927;29;20050;-89
2022/09/04 10:41:10;;;;;;;7.57;1.70;;;;;;;17.28;34.68;100120.16;4846481;29;20127;-87
2022/09/04 10:43:36;;;;;;;6.53;2.13;;;;;;;17.47;33.33;100120.47;4877672;29;20151;-88
2022/09/04 10:46:11;;;;;;;5.85;2.40;;;;;;;17.41;33.21;100083.13;4846572;29;20077;-90
2022/09/04 10:48:53;;;;;;;3.60;1.80;;;;;;;17.61;31.05;100104.44;4844745;29;20544;-87
2022/09/04 10:52:13;;;;;;;3.75;1.85;;;;;;;17.19;29.51;100080.78;4856802;29;20600;-88
2022/09/04 10:54:53;;;;;;;5.65;1.55;;;;;;;17.12;30.01;100112.50;4801991;29;20067;-87
2022/09/04 10:57:50;;;;;;;3.88;1.50;;;;;;;17.16;31.15;100104.34;4859127;29;20611;-92
2022/09/04 11:00:21;;;;;;;6.05;2.00;;;;;;;16.92;31.60;100074.66;4829332;29;20049;-91
2022/09/04 11:03:15;;;;;;;2.60;1.70;;;;;;;17.11;33.27;100112.81;4829146;29;20653;-93
2022/09/04 11:06:09;;;;;;;3.70;2.00;;;;;;;16.87;33.35;100124.56;4848235;29;20057;-90
2022/09/04 11:08:48;;;;;;;9.15;2.00;;;;;;;16.63;33.33;100106.66;4863172;29;20045;-92
2022/09/04 11:11:32;;;;;;;3.67;1.70;;;;;;;16.45;33.65;100083.03;4847828;29;20108;-93
2022/09/04 11:14:28;;;;;;;5.43;1.75;;;;;;;16.57;33.92;100110.75;4831877;29;20053;-91
2022/09/04 11:17:23;;;;;;;10.68;1.88;;;;;;;16.54;35.17;100067.25;4847499;29;20049;-94
2022/09/04 11:20:17;;;;;;;3.63;1.80;;;;;;;16.95;33.27;100111.81;4878709;29;20162;-94
2022/09/04 11:23:30;;;;;;;3.65;1.95;;;;;;;16.58;34.04;100104.06;4863865;29;20040;-94
2022/09/04 11:26:25;;;;;;;11.35;1.80;;;;;;;16.52;34.92;100102.63;4871731;29;20036;-94
2022/09/04 11:30:12;;;;;;;11.98;2.47;;;;;;;15.98;34.55;100056.31;4876556;29;20059;-92
2022/09/04 11:32:44;;;;;;;24.48;4.07;;;;;;;16.42;34.50;100092.81;4867112;29;20045;-92
2022/09/04 11:35:38;;;;;;;14.80;2.47;;;;;;;16.84;34.30;100097.59;4856084;29;20133;-91
2022/09/04 11:38:27;;;;;;;7.30;2.08;;;;;;;16.85;32.19;100072.44;4863005;29;20108;-91
2022/09/04 11:41:15;;;;;;;5.63;1.70;;;;;;;17.32;31.00;100090.72;4847491;29;20105;-93
2022/09/04 11:43:48;;;;;;;5.30;1.55;;;;;;;17.48;29.02;100094.47;4833380;29;20046;-89
2022/09/04 11:46:51;;;;;;;3.00;1.58;;;;;;;17.41;30.12;100090.63;4832961;29;20132;-93
2022/09/04 11:49:45;;;;;;;4.18;1.70;;;;;;;17.26;29.71;100081.03;4845486;29;20412;-94
2022/09/04 11:52:15;;;;;;;3.40;1.60;;;;;;;17.11;31.17;100079.69;4838910;29;20045;-93
2022/09/04 11:55:18;;;;;;;5.15;2.00;;;;;;;16.97;30.54;100084.69;4844477;29;20044;-88
2022/09/04 11:58:19;;;;;;;63.97;6.25;;;;;;;17.02;32.26;100085.28;4853863;29;20050;-90
2022/09/04 12:01:20;;;;;;;6.32;2.03;;;;;;;16.17;32.50;99989.72;4860070;29;20139;-93
2022/09/04 12:08:08;;;;;;;8.45;1.92;;;;;;;15.94;32.42;99991.97;4855927;29;20049;-91
2022/09/04 12:11:15;;;;;;;13.50;2.28;;;;;;;17.07;32.73;100079.53;4858116;29;20525;-94
2022/09/04 12:14:35;;;;;;;;;;;;;;;;;;;;;
2022/09/04 12:23:16;;;;;;;5.13;2.10;;;;;;;17.57;30.90;100058.44;4841526;29;20052;-93
2022/09/04 12:26:48;;;;;;;;;;;;;;;;;;;;;
2022/09/04 12:30:11;;;;;;;30.00;3.65;;;;;;;18.11;30.43;100074.09;4852274;29;20048;-95
2022/09/04 12:56:04;;;;;;;19.17;3.47;;;;;;;16.73;33.57;100038.38;4730165;30;20068;-90
2022/09/04 12:58:58;;;;;;;28.65;3.30;;;;;;;16.87;32.11;100011.31;4695836;30;20049;-92
2022/09/04 13:01:48;;;;;;;13.32;2.83;;;;;;;17.59;31.10;100067.22;4688684;30;20091;-89
2022/09/04 13:04:30;;;;;;;6.18;2.63;;;;;;;17.38;30.93;100000.91;4702900;30;20044;-89
2022/09/04 13:07:24;;;;;;;20.92;3.05;;;;;;;17.45;31.03;100064.75;4696158;30;20041;-91
2022/09/04 13:10:09;;;;;;;13.93;2.92;;;;;;;17.13;31.80;100066.34;4709696;30;20492;-90
2022/09/04 13:12:36;;;;;;;;;;;;;;;16.82;32.05;100067.56;4749431;30;20052;-90
2022/09/04 13:15:28;;;;;;;21.45;3.25;;;;;;;16.76;32.66;100068.91;4729749;30;19949;-88
2022/09/04 13:18:13;;;;;;;19.15;3.20;;;;;;;16.66;32.99;100072.03;4711978;30;20052;-89
2022/09/04 13:21:11;;;;;;;41.53;4.32;;;;;;;16.60;34.35;100060.38;4760502;29;20139;-91
2022/09/04 13:23:37;;;;;;;10.63;2.53;;;;;;;16.75;32.89;100063.72;4792672;29;20050;-90
2022/09/04 13:26:30;;;;;;;8.07;2.87;;;;;;;16.31;32.41;100014.28;4796868;29;20042;-91
2022/09/04 13:29:02;;;;;;;13.63;2.30;;;;;;;16.50;33.28;100049.75;4809891;29;20051;-90
2022/09/04 13:31:42;;;;;;;10.27;2.60;;;;;;;16.50;33.75;100008.34;4809536;29;20046;-90
2022/09/04 13:34:31;;;;;;;14.82;3.20;;;;;;;17.05;31.89;100039.59;4852476;29;20109;-89
2022/09/04 13:37:13;;;;;;;35.55;4.03;;;;;;;17.23;32.29;100043.00;4859308;29;20069;-91
2022/09/04 13:40:01;;;;;;;12.02;2.90;;;;;;;17.48;32.33;100041.13;4849416;29;20384;-92
2022/09/04 13:42:57;;;;;;;16.30;2.40;;;;;;;16.83;31.23;99955.16;4856915;29;20056;-92
2022/09/04 13:45:55;;;;;;;12.55;2.83;;;;;;;17.07;30.29;99995.88;4891848;29;20056;-92
2022/09/04 13:48:43;;;;;;;22.10;2.72;;;;;;;17.12;30.83;99987.38;4861000;29;20048;-90
2022/09/04 13:51:28;;;;;;;12.88;2.38;;;;;;;17.54;32.61;100009.34;4862258;29;20041;-92
2022/09/04 13:54:24;;;;;;;12.70;2.88;;;;;;;17.36;30.08;99951.50;4885339;29;20100;-94
2022/09/04 13:56:55;;;;;;;11.45;3.17;;;;;;;17.89;30.59;100042.97;4881376;29;20518;-93
2022/09/04 13:59:24;;;;;;;24.33;3.03;;;;;;;17.48;31.88;99950.75;4849601;29;20412;-93